createdAt,value
2018-08-06T00:00:04.272Z,2.10
2018-08-06T00:02:32.670Z,2.10
2018-08-06T00:05:01.059Z,2.17
2018-08-06T00:07:29.471Z,1.80
2018-08-06T00:09:57.996Z,2.20
2018-08-06T00:12:26.544Z,2.30
2018-08-06T00:14:55.003Z,2.40
2018-08-06T00:17:23.408Z,2.53
2018-08-06T00:19:51.872Z,2.07
2018-08-06T00:22:20.344Z,2.00
2018-08-06T00:24:48.877Z,2.20
2018-08-06T00:27:17.348Z,2.00
2018-08-06T00:29:45.797Z,2.10
2018-08-06T00:32:14.332Z,1.93
2018-08-06T00:34:42.786Z,2.00
2018-08-06T00:37:11.360Z,2.03
2018-08-06T00:39:39.709Z,1.90
2018-08-06T00:42:08.244Z,2.00
2018-08-06T00:44:36.621Z,2.10
2018-08-06T00:47:05.650Z,1.80
2018-08-06T00:49:34.048Z,1.93
2018-08-06T00:52:02.504Z,2.40
2018-08-06T00:54:30.923Z,2.20
2018-08-06T00:56:59.309Z,1.90
2018-08-06T00:59:27.816Z,2.50
2018-08-06T01:01:56.231Z,2.10
2018-08-06T01:04:24.858Z,1.90
2018-08-06T01:06:53.440Z,1.90
2018-08-06T01:09:21.859Z,2.20
2018-08-06T01:11:50.275Z,1.90
2018-08-06T01:14:18.643Z,1.90
2018-08-06T01:16:47.082Z,2.30
2018-08-06T01:19:15.562Z,2.07
2018-08-06T01:21:44.227Z,2.30
2018-08-06T01:24:12.867Z,2.27
2018-08-06T01:26:41.302Z,2.00
2018-08-06T01:29:09.687Z,2.20
2018-08-06T01:31:38.124Z,2.10
2018-08-06T01:34:06.556Z,2.23
2018-08-06T01:36:34.993Z,2.20
2018-08-06T01:39:03.460Z,2.17
2018-08-06T01:41:31.859Z,2.30
2018-08-06T01:44:00.274Z,2.10
2018-08-06T01:46:28.761Z,1.90
2018-08-06T01:48:57.177Z,1.73
2018-08-06T01:51:25.570Z,2.00
2018-08-06T01:53:54.095Z,2.00
2018-08-06T01:56:22.518Z,1.90
2018-08-06T01:58:51.544Z,2.33
2018-08-06T02:01:20.007Z,2.10
2018-08-06T02:03:48.515Z,2.43
2018-08-06T02:06:16.933Z,2.50
2018-08-06T02:08:45.377Z,2.30
2018-08-06T02:11:13.843Z,2.50
2018-08-06T02:13:42.255Z,1.87
2018-08-06T02:16:10.781Z,2.20
2018-08-06T02:18:39.155Z,2.30
2018-08-06T02:21:07.804Z,2.40
2018-08-06T02:23:36.255Z,2.20
2018-08-06T02:26:04.818Z,2.17
2018-08-06T02:28:33.295Z,2.40
2018-08-06T02:31:01.752Z,2.20
2018-08-06T02:33:30.159Z,2.60
2018-08-06T02:35:58.585Z,2.20
2018-08-06T02:38:27.046Z,2.20
2018-08-06T02:40:55.514Z,2.63
2018-08-06T02:43:23.989Z,2.37
2018-08-06T02:45:52.500Z,2.40
2018-08-06T02:48:20.948Z,2.30
2018-08-06T02:50:49.395Z,2.50
2018-08-06T02:53:17.814Z,2.50
2018-08-06T02:55:46.275Z,2.53
2018-08-06T02:58:14.677Z,2.50
2018-08-06T03:00:43.175Z,2.40
2018-08-06T03:03:11.547Z,2.43
2018-08-06T03:05:39.964Z,2.20
2018-08-06T03:08:08.540Z,2.63
2018-08-06T03:10:36.948Z,2.97
2018-08-06T03:13:05.524Z,2.40
2018-08-06T03:15:33.977Z,2.83
2018-08-06T03:18:02.474Z,2.33
2018-08-06T03:20:30.833Z,2.60
2018-08-06T03:22:59.309Z,2.70
2018-08-06T03:25:27.885Z,2.57
2018-08-06T03:27:56.468Z,2.20
2018-08-06T03:30:24.918Z,2.70
2018-08-06T03:32:53.347Z,2.87
2018-08-06T03:35:21.748Z,2.73
2018-08-06T03:37:50.181Z,2.83
2018-08-06T03:40:18.724Z,2.53
2018-08-06T03:42:47.130Z,2.37
2018-08-06T03:45:15.586Z,2.50
2018-08-06T03:47:43.824Z,2.90
2018-08-06T03:50:13.482Z,2.80
2018-08-06T03:52:42.031Z,2.63
2018-08-06T03:55:11.301Z,2.47
2018-08-06T03:57:40.300Z,2.80
2018-08-06T04:00:11.067Z,2.80
2018-08-06T04:02:39.830Z,2.50
2018-08-06T04:05:11.012Z,2.67
2018-08-06T04:07:39.482Z,2.50
2018-08-06T04:10:09.234Z,2.60
2018-08-06T04:12:37.780Z,2.40
2018-08-06T04:15:07.426Z,2.70
2018-08-06T04:17:35.795Z,2.67
2018-08-06T04:20:05.025Z,2.73
2018-08-06T04:22:33.430Z,2.50
2018-08-06T04:25:01.895Z,2.67
2018-08-06T04:27:30.399Z,2.50
2018-08-06T04:29:58.952Z,2.60
2018-08-06T04:32:27.384Z,3.07
2018-08-06T04:34:55.864Z,2.83
2018-08-06T04:37:24.259Z,2.73
2018-08-06T04:39:52.878Z,2.60
2018-08-06T04:42:21.567Z,2.50
2018-08-06T04:44:50.149Z,2.50
2018-08-06T04:47:18.710Z,3.03
2018-08-06T04:49:47.231Z,3.17
2018-08-06T04:52:15.973Z,2.60
2018-08-06T04:54:44.367Z,3.20
2018-08-06T04:57:12.741Z,2.50
2018-08-06T04:59:41.154Z,2.67
2018-08-06T05:02:09.728Z,2.40
2018-08-06T05:04:38.118Z,3.17
2018-08-06T05:07:06.545Z,2.53
2018-08-06T05:09:43.000Z,2.53
2018-08-06T05:12:11.394Z,2.77
2018-08-06T05:14:40.643Z,2.83
2018-08-06T05:17:09.284Z,2.70
2018-08-06T05:19:38.351Z,2.80
2018-08-06T05:22:07.511Z,2.90
2018-08-06T05:24:36.094Z,2.70
2018-08-06T05:27:05.437Z,2.77
2018-08-06T05:29:33.986Z,2.90
2018-08-06T05:32:02.484Z,2.90
2018-08-06T05:34:30.913Z,2.63
2018-08-06T05:36:59.334Z,2.80
2018-08-06T05:39:27.722Z,2.43
2018-08-06T05:41:56.158Z,2.67
2018-08-06T05:44:24.765Z,3.00
2018-08-06T05:46:53.159Z,2.70
2018-08-06T05:49:21.731Z,2.63
2018-08-06T05:51:50.239Z,2.40
2018-08-06T05:54:18.669Z,2.50
2018-08-06T05:56:47.140Z,2.60
2018-08-06T05:59:15.531Z,2.40
2018-08-06T06:01:43.982Z,2.40
2018-08-06T06:04:12.401Z,2.63
2018-08-06T06:06:40.764Z,2.23
2018-08-06T06:09:10.387Z,2.47
2018-08-06T06:11:39.103Z,2.37
2018-08-06T06:14:08.547Z,2.83
2018-08-06T06:16:36.996Z,2.43
2018-08-06T06:19:05.999Z,2.50
2018-08-06T06:21:34.516Z,2.60
2018-08-06T06:24:02.928Z,2.60
2018-08-06T06:26:31.773Z,2.30
2018-08-06T06:29:00.219Z,2.37
2018-08-06T06:31:28.632Z,2.57
2018-08-06T06:33:57.266Z,2.57
2018-08-06T06:36:25.671Z,2.50
2018-08-06T06:38:54.074Z,2.60
2018-08-06T06:41:22.712Z,2.20
2018-08-06T06:43:51.100Z,2.20
2018-08-06T06:46:19.673Z,2.70
2018-08-06T06:48:48.111Z,2.43
2018-08-06T06:51:16.514Z,2.47
2018-08-06T06:53:45.121Z,2.43
2018-08-06T06:56:13.643Z,2.37
2018-08-06T06:58:42.214Z,2.57
2018-08-06T07:01:10.657Z,2.53
2018-08-06T07:03:39.254Z,2.57
2018-08-06T07:06:07.654Z,2.53
2018-08-06T07:08:36.172Z,2.25
2018-08-06T07:11:04.579Z,2.83
2018-08-06T07:13:33.069Z,2.50
2018-08-06T07:16:01.573Z,2.10
2018-08-06T07:18:29.972Z,2.07
2018-08-06T07:20:58.410Z,2.17
2018-08-06T07:23:26.991Z,2.52
2018-08-06T07:25:55.398Z,2.57
2018-08-06T07:28:23.952Z,2.12
2018-08-06T07:30:52.680Z,2.83
2018-08-06T07:33:21.095Z,2.30
2018-08-06T07:35:49.645Z,2.47
2018-08-06T07:38:18.047Z,2.70
2018-08-06T07:40:46.486Z,2.40
2018-08-06T07:43:14.949Z,2.25
2018-08-06T07:45:43.370Z,2.12
2018-08-06T07:48:11.831Z,2.25
2018-08-06T07:50:40.342Z,2.00
2018-08-06T07:53:08.770Z,2.00
2018-08-06T07:55:37.290Z,2.33
2018-08-06T07:58:05.923Z,1.90
2018-08-06T08:00:34.512Z,1.80
2018-08-06T08:03:02.914Z,1.98
2018-08-06T08:05:31.283Z,2.10
2018-08-06T08:07:59.770Z,1.60
2018-08-06T08:10:28.254Z,2.00
2018-08-06T08:12:56.838Z,1.90
2018-08-06T08:15:26.412Z,1.77
2018-08-06T08:17:56.476Z,1.87
2018-08-06T08:20:25.087Z,1.83
2018-08-06T08:22:53.591Z,1.80
2018-08-06T08:25:22.857Z,1.62
2018-08-06T08:27:51.512Z,1.60
2018-08-06T08:30:20.406Z,1.52
2018-08-06T08:32:48.918Z,1.50
2018-08-06T08:35:17.330Z,1.67
2018-08-06T08:37:45.774Z,1.52
2018-08-06T08:40:18.180Z,1.77
2018-08-06T08:42:46.707Z,1.50
2018-08-06T08:45:16.555Z,1.67
2018-08-06T08:47:45.496Z,1.90
2018-08-06T08:50:15.266Z,1.40
2018-08-06T08:52:43.948Z,1.50
2018-08-06T08:55:14.075Z,1.60
2018-08-06T08:57:42.924Z,1.60
2018-08-06T09:00:15.791Z,1.70
2018-08-06T09:02:45.758Z,1.52
2018-08-06T09:05:14.868Z,1.50
2018-08-06T09:07:43.282Z,1.62
2018-08-06T09:10:12.822Z,1.80
2018-08-06T09:12:41.611Z,1.37
2018-08-06T09:15:13.797Z,1.75
2018-08-06T09:17:42.596Z,1.80
2018-08-06T09:20:11.166Z,1.90
2018-08-06T09:22:40.273Z,1.70
2018-08-06T09:25:09.656Z,1.57
2018-08-06T09:27:39.195Z,1.72
2018-08-06T09:30:11.973Z,1.65
2018-08-06T09:32:41.092Z,1.90
2018-08-06T09:35:09.512Z,1.77
2018-08-06T09:37:38.100Z,1.67
2018-08-06T09:40:08.851Z,1.92
2018-08-06T09:42:37.555Z,2.08
2018-08-06T09:45:06.707Z,1.98
2018-08-06T09:47:35.159Z,1.77
2018-08-06T09:50:04.301Z,1.60
2018-08-06T09:52:32.765Z,1.50
2018-08-06T09:55:01.167Z,1.70
2018-08-06T09:57:29.679Z,2.08
2018-08-06T09:59:58.089Z,1.82
2018-08-06T10:02:26.548Z,1.65
2018-08-06T10:04:54.950Z,1.67
2018-08-06T10:07:23.362Z,1.55
2018-08-06T10:09:51.874Z,2.00
2018-08-06T10:12:20.275Z,1.70
2018-08-06T10:14:48.692Z,1.95
2018-08-06T10:17:17.098Z,1.80
2018-08-06T10:19:45.469Z,2.00
2018-08-06T10:22:13.914Z,1.90
2018-08-06T10:24:42.277Z,2.08
2018-08-06T10:27:10.676Z,1.72
2018-08-06T10:29:39.088Z,2.10
2018-08-06T10:32:07.680Z,2.20
2018-08-06T10:34:36.048Z,2.00
2018-08-06T10:37:04.514Z,2.20
2018-08-06T10:39:32.902Z,1.92
2018-08-06T10:42:01.416Z,1.90
2018-08-06T10:44:29.826Z,2.05
2018-08-06T10:46:58.286Z,2.00
2018-08-06T10:49:26.839Z,2.00
2018-08-06T10:51:55.328Z,1.92
2018-08-06T10:54:23.890Z,2.00
2018-08-06T10:56:52.343Z,2.00
2018-08-06T10:59:20.816Z,2.90
2018-08-06T11:01:49.211Z,2.47
2018-08-06T11:04:17.812Z,2.08
2018-08-06T11:06:46.359Z,2.00
2018-08-06T11:09:14.641Z,2.30
2018-08-06T11:11:42.996Z,2.25
2018-08-06T11:14:11.789Z,1.92
2018-08-06T11:16:40.168Z,2.25
2018-08-06T11:19:08.302Z,2.20
2018-08-06T11:21:37.035Z,2.15
2018-08-06T11:24:05.563Z,2.00
2018-08-06T11:26:33.942Z,2.22
2018-08-06T11:29:02.339Z,2.02
2018-08-06T11:31:30.831Z,2.22
2018-08-06T11:33:59.197Z,2.25
2018-08-06T11:36:27.649Z,1.90
2018-08-06T11:38:56.007Z,2.02
2018-08-06T11:41:24.418Z,1.95
2018-08-06T11:43:53.006Z,1.42
2018-08-06T11:46:21.386Z,2.02
2018-08-06T11:48:49.790Z,1.90
2018-08-06T11:51:18.199Z,1.80
2018-08-06T11:53:46.590Z,2.30
2018-08-06T11:56:15.010Z,1.87
2018-08-06T11:58:43.407Z,2.20
2018-08-06T12:01:11.853Z,1.90
2018-08-06T12:03:40.267Z,1.80
2018-08-06T12:06:08.829Z,2.22
2018-08-06T12:08:37.262Z,2.20
2018-08-06T12:11:05.998Z,1.90
2018-08-06T12:13:34.537Z,2.20
2018-08-06T12:16:02.948Z,2.23
2018-08-06T12:18:31.433Z,2.10
2018-08-06T12:20:59.881Z,2.13
2018-08-06T12:23:28.286Z,1.98
2018-08-06T12:25:56.735Z,2.00
2018-08-06T12:28:24.840Z,1.70
2018-08-06T12:30:53.368Z,2.17
2018-08-06T12:33:21.772Z,2.40
2018-08-06T12:35:50.178Z,1.87
2018-08-06T12:38:18.794Z,2.30
2018-08-06T12:40:47.115Z,2.15
2018-08-06T12:43:15.485Z,2.08
2018-08-06T12:45:43.917Z,1.87
2018-08-06T12:48:12.379Z,1.80
2018-08-06T12:50:40.885Z,1.90
2018-08-06T12:53:09.324Z,1.85
2018-08-06T12:55:37.848Z,1.75
2018-08-06T12:58:06.205Z,2.22
2018-08-06T13:00:34.569Z,1.80
2018-08-06T13:03:03.030Z,1.80
2018-08-06T13:05:31.419Z,1.92
2018-08-06T13:07:59.846Z,1.98
2018-08-06T13:10:28.324Z,1.67
2018-08-06T13:12:56.707Z,1.37
2018-08-06T13:15:25.177Z,1.90
2018-08-06T13:17:53.794Z,1.70
2018-08-06T13:20:22.173Z,1.85
2018-08-06T13:22:50.587Z,1.62
2018-08-06T13:25:18.970Z,2.00
2018-08-06T13:27:47.350Z,1.60
2018-08-06T13:30:16.363Z,1.75
2018-08-06T13:32:45.484Z,2.00
2018-08-06T13:35:14.694Z,1.90
2018-08-06T13:37:43.192Z,1.80
2018-08-06T13:40:11.982Z,1.55
2018-08-06T13:42:40.566Z,1.90
2018-08-06T13:45:10.886Z,2.20
2018-08-06T13:47:39.366Z,1.70
2018-08-06T13:50:08.707Z,1.80
2018-08-06T13:52:37.460Z,1.75
2018-08-06T13:55:06.850Z,1.67
2018-08-06T13:57:35.291Z,2.00
2018-08-06T14:00:05.667Z,1.90
2018-08-06T14:02:34.092Z,1.77
2018-08-06T14:05:02.555Z,1.80
2018-08-06T14:07:31.012Z,1.70
2018-08-06T14:09:59.515Z,1.82
2018-08-06T14:12:27.941Z,1.85
2018-08-06T14:14:56.425Z,1.70
2018-08-06T14:17:24.948Z,1.45
2018-08-06T14:19:53.433Z,2.00
2018-08-06T14:22:22.027Z,1.55
2018-08-06T14:24:50.376Z,1.72
2018-08-06T14:27:18.864Z,1.65
2018-08-06T14:29:47.204Z,1.60
2018-08-06T14:32:15.641Z,1.80
2018-08-06T14:34:43.795Z,1.90
2018-08-06T14:37:12.360Z,1.90
2018-08-06T14:39:40.815Z,1.80
2018-08-06T14:42:09.239Z,1.72
2018-08-06T14:44:37.785Z,1.70
2018-08-06T14:47:06.317Z,1.87
2018-08-06T14:49:34.691Z,1.70
2018-08-06T14:52:03.559Z,1.55
2018-08-06T14:54:31.935Z,1.80
2018-08-06T14:57:00.522Z,1.60
2018-08-06T14:59:29.081Z,1.70
2018-08-06T15:01:57.571Z,1.55
2018-08-06T15:04:25.909Z,1.40
2018-08-06T15:06:54.338Z,1.52
2018-08-06T15:09:22.912Z,1.42
2018-08-06T15:11:51.352Z,1.60
2018-08-06T15:14:19.733Z,1.72
2018-08-06T15:16:47.863Z,1.50
2018-08-06T15:19:16.264Z,1.70
2018-08-06T15:21:44.928Z,1.70
2018-08-06T15:24:13.276Z,1.30
2018-08-06T15:26:41.730Z,1.55
2018-08-06T15:29:09.904Z,1.45
2018-08-06T15:31:38.413Z,1.40
2018-08-06T15:34:07.034Z,1.47
2018-08-06T15:36:35.608Z,1.40
2018-08-06T15:39:05.797Z,1.55
2018-08-06T15:41:34.158Z,1.40
2018-08-06T15:44:02.351Z,1.40
2018-08-06T15:46:30.756Z,1.40
2018-08-06T15:48:59.349Z,1.52
2018-08-06T15:51:27.873Z,1.50
2018-08-06T15:53:56.339Z,1.40
2018-08-06T15:56:24.743Z,1.27
2018-08-06T15:58:53.169Z,1.60
2018-08-06T16:01:21.679Z,1.40
2018-08-06T16:03:50.119Z,1.30
2018-08-06T16:06:18.583Z,1.60
2018-08-06T16:08:47.074Z,1.30
2018-08-06T16:11:15.451Z,1.40
2018-08-06T16:13:43.915Z,1.57
2018-08-06T16:16:12.347Z,1.60
2018-08-06T16:18:40.772Z,1.62
2018-08-06T16:21:09.723Z,1.50
2018-08-06T16:23:38.986Z,1.40
2018-08-06T16:26:08.082Z,1.50
2018-08-06T16:28:37.174Z,1.50
2018-08-06T16:31:06.358Z,1.42
2018-08-06T16:33:35.606Z,1.40
2018-08-06T16:36:04.088Z,1.30
2018-08-06T16:38:33.309Z,1.62
2018-08-06T16:41:01.774Z,1.40
2018-08-06T16:43:30.183Z,1.25
2018-08-06T16:45:58.673Z,1.30
2018-08-06T16:48:27.092Z,1.25
2018-08-06T16:50:55.518Z,1.10
2018-08-06T16:53:23.993Z,1.32
2018-08-06T16:55:52.399Z,1.77
2018-08-06T16:58:20.814Z,1.40
2018-08-06T17:00:49.241Z,1.50
2018-08-06T17:03:17.658Z,1.32
2018-08-06T17:05:46.070Z,1.30
2018-08-06T17:08:14.579Z,1.62
2018-08-06T17:10:43.043Z,1.50
2018-08-06T17:13:12.422Z,1.50
2018-08-06T17:15:41.254Z,1.60
2018-08-06T17:18:09.666Z,1.47
2018-08-06T17:20:38.216Z,1.50
2018-08-06T17:23:06.605Z,1.10
2018-08-06T17:25:35.094Z,1.30
2018-08-06T17:28:04.256Z,1.30
2018-08-06T17:30:33.961Z,1.35
2018-08-06T17:33:02.403Z,1.45
2018-08-06T17:35:30.792Z,1.50
2018-08-06T17:37:59.403Z,1.35
2018-08-06T17:40:27.891Z,1.40
2018-08-06T17:42:56.313Z,1.00
2018-08-06T17:45:24.645Z,1.50
2018-08-06T17:47:53.070Z,1.52
2018-08-06T17:50:22.722Z,1.50
2018-08-06T17:52:51.985Z,1.70
2018-08-06T17:55:21.399Z,1.60
2018-08-06T17:57:49.855Z,1.45
2018-08-06T18:00:18.813Z,1.60
2018-08-06T18:02:47.635Z,1.50
2018-08-06T18:05:16.997Z,1.52
2018-08-06T18:07:45.624Z,1.40
2018-08-06T18:10:15.216Z,1.20
2018-08-06T18:12:44.302Z,1.42
2018-08-06T18:15:12.765Z,1.60
2018-08-06T18:17:41.171Z,1.40
2018-08-06T18:20:13.730Z,1.32
2018-08-06T18:22:42.098Z,1.57
2018-08-06T18:25:13.238Z,1.80
2018-08-06T18:27:42.429Z,1.57
2018-08-06T18:30:14.284Z,1.47
2018-08-06T18:32:42.753Z,1.45
2018-08-06T18:35:13.351Z,1.65
2018-08-06T18:37:42.077Z,1.52
2018-08-06T18:40:11.439Z,1.40
2018-08-06T18:42:40.333Z,1.60
2018-08-06T18:45:12.720Z,1.60
2018-08-06T18:47:42.088Z,1.50
2018-08-06T18:50:11.931Z,1.57
2018-08-06T18:52:40.610Z,1.60
2018-08-06T18:55:11.562Z,1.60
2018-08-06T18:57:40.453Z,1.45
2018-08-06T19:00:16.811Z,1.50
2018-08-06T19:02:45.392Z,1.55
2018-08-06T19:05:14.627Z,1.42
2018-08-06T19:07:44.409Z,1.82
2018-08-06T19:10:13.251Z,2.30
2018-08-06T19:12:46.996Z,1.75
2018-08-06T19:15:15.597Z,2.30
2018-08-06T19:17:49.492Z,1.90
2018-08-06T19:20:17.745Z,1.95
2018-08-06T19:22:46.331Z,1.80
2018-08-06T19:25:20.350Z,1.67
2018-08-06T19:27:48.830Z,1.60
2018-08-06T19:30:17.319Z,1.82
2018-08-06T19:32:45.788Z,1.92
2018-08-06T19:35:14.608Z,1.62
2018-08-06T19:37:47.019Z,1.60
2018-08-06T19:40:15.683Z,1.90
2018-08-06T19:42:50.020Z,1.55
2018-08-06T19:45:18.375Z,1.80
2018-08-06T19:47:46.825Z,1.72
2018-08-06T19:50:46.003Z,1.55
2018-08-06T19:53:14.408Z,1.72
2018-08-06T19:55:48.291Z,1.70
2018-08-06T19:58:16.883Z,1.75
2018-08-06T20:00:45.271Z,2.17
2018-08-06T20:03:13.844Z,1.98
2018-08-06T20:05:42.636Z,1.65
2018-08-06T20:08:10.951Z,2.37
2018-08-06T20:10:39.470Z,2.47
2018-08-06T20:13:08.181Z,2.30
2018-08-06T20:15:37.021Z,2.10
2018-08-06T20:18:05.946Z,2.00
2018-08-06T20:20:34.620Z,2.02
2018-08-06T20:23:03.071Z,2.12
2018-08-06T20:25:31.436Z,2.02
2018-08-06T20:27:59.990Z,2.45
2018-08-06T20:30:28.455Z,2.37
2018-08-06T20:32:56.891Z,2.70
2018-08-06T20:35:25.392Z,2.00
2018-08-06T20:37:53.943Z,2.35
2018-08-06T20:40:22.411Z,2.33
2018-08-06T20:42:50.799Z,2.42
2018-08-06T20:45:20.401Z,2.25
2018-08-06T20:47:48.915Z,2.10
2018-08-06T20:50:19.593Z,1.70
2018-08-06T20:52:49.323Z,1.80
2018-08-06T20:55:17.786Z,2.22
2018-08-06T20:57:46.655Z,2.17
2018-08-06T21:00:17.437Z,2.15
2018-08-06T21:02:46.653Z,1.95
2018-08-06T21:05:15.095Z,1.92
2018-08-06T21:07:43.487Z,1.80
2018-08-06T21:10:13.443Z,1.70
2018-08-06T21:12:41.866Z,2.02
2018-08-06T21:15:11.588Z,1.90
2018-08-06T21:17:40.187Z,1.70
2018-08-06T21:20:10.439Z,1.85
2018-08-06T21:22:38.879Z,1.80
2018-08-06T21:25:08.609Z,1.92
2018-08-06T21:27:37.121Z,2.00
2018-08-06T21:30:11.455Z,1.85
2018-08-06T21:32:42.656Z,1.90
2018-08-06T21:35:11.092Z,1.80
2018-08-06T21:37:39.800Z,1.77
2018-08-06T21:40:08.286Z,1.70
2018-08-06T21:42:36.709Z,1.83
2018-08-06T21:45:05.223Z,1.70
2018-08-06T21:47:33.829Z,1.72
2018-08-06T21:50:02.514Z,2.13
2018-08-06T21:52:30.958Z,1.70
2018-08-06T21:54:59.434Z,1.77
2018-08-06T21:57:27.857Z,1.80
2018-08-06T21:59:56.304Z,2.10
2018-08-06T22:02:24.727Z,2.12
2018-08-06T22:04:53.141Z,2.10
2018-08-06T22:07:21.549Z,2.20
2018-08-06T22:09:49.939Z,2.05
2018-08-06T22:12:18.400Z,1.87
2018-08-06T22:14:46.887Z,2.12
2018-08-06T22:17:15.319Z,2.20
2018-08-06T22:19:43.770Z,2.20
2018-08-06T22:22:12.230Z,2.10
2018-08-06T22:24:40.662Z,2.27
2018-08-06T22:27:09.069Z,2.42
2018-08-06T22:29:37.504Z,2.03
2018-08-06T22:32:05.942Z,2.12
2018-08-06T22:34:34.374Z,2.20
2018-08-06T22:37:02.781Z,1.90
2018-08-06T22:39:31.231Z,2.10
2018-08-06T22:41:59.636Z,2.25
2018-08-06T22:44:28.107Z,2.05
2018-08-06T22:46:56.554Z,1.97
2018-08-06T22:49:24.926Z,2.10
2018-08-06T22:51:53.371Z,2.33
2018-08-06T22:54:21.713Z,2.20
2018-08-06T22:56:50.123Z,1.57
2018-08-06T22:59:18.595Z,2.10
2018-08-06T23:01:47.130Z,2.03
2018-08-06T23:04:15.534Z,2.00
2018-08-06T23:06:43.941Z,2.17
2018-08-06T23:09:13.114Z,2.25
2018-08-06T23:11:42.167Z,2.00
2018-08-06T23:14:10.566Z,2.03
2018-08-06T23:16:39.349Z,2.10
2018-08-06T23:19:07.782Z,2.07
2018-08-06T23:21:36.264Z,2.30
2018-08-06T23:24:05.350Z,1.97
2018-08-06T23:26:33.911Z,2.00
2018-08-06T23:29:02.350Z,2.50
2018-08-06T23:31:30.505Z,2.27
2018-08-06T23:33:59.025Z,2.20
2018-08-06T23:36:27.458Z,2.37
2018-08-06T23:38:56.010Z,2.20
2018-08-06T23:41:24.387Z,1.93
2018-08-06T23:43:52.974Z,2.40
2018-08-06T23:46:21.453Z,2.50
2018-08-06T23:48:49.955Z,2.17
2018-08-06T23:51:18.343Z,2.13
2018-08-06T23:53:46.808Z,2.30
2018-08-06T23:56:15.277Z,2.10
2018-08-06T23:58:43.769Z,2.20
